»·PEaware :: UAL4720 KVNY-KSBP

UAL4720 :: KVNY-KSBP

FLIGHT INFORMATION

Flight Status: Arrived
Operator:
United Airlines
More flights by this operator :: More flights under this callsign
Pilot: Sergei F. (8485)
Aircraft: BOEING 737-600
(B736)
More flights by this aircraft type
Origin: KVNY Van Nuys
United States
Destination: KSBP San Luis Co Regl
United States
More flights between these airports :: More routes between these airports
Route: CANOG3 FIM V597 RZS T257 MQO
File this flight plan on PilotEdge
Remarks:
Altitude:
(Current/Filed)
20,000ft
Speed:
(Current/Filed)
400kts
Departed: 17-Sep-22 07:40 PM
Arrived: 17-Sep-22 08:11 PM
Distance/Time
Traveled:
123nm/0:30
Distance/Time
To Go:
Arrived

Flight Plot

Page will automatically refresh every two minutes.

Flight plan parsing failed; only flown route is shown


Map Options




Map Legend


Flown Route
Filed Route
Departure Airport
Arrival Airport
Navaid (VOR, NDB)
Fix

Horizontal Profiles

Position Reports

Time Latitude Longitude Heading Altitude Ground
Speed
17-Sep-22 19:11 34.208336 -118.487675 359 810ft 0kts
17-Sep-22 19:12 34.208336 -118.487675 359 810ft 0kts
17-Sep-22 19:13 34.208336 -118.487675 359 810ft 0kts
17-Sep-22 19:14 34.208336 -118.487675 359 810ft 0kts
17-Sep-22 19:15 34.208336 -118.487675 359 810ft 0kts
17-Sep-22 19:16 34.208336 -118.487675 359 810ft 0kts
17-Sep-22 19:17 34.208336 -118.487675 359 810ft 0kts
17-Sep-22 19:18 34.208336 -118.487675 359 810ft 0kts
17-Sep-22 19:19 34.208336 -118.487675 359 810ft 0kts
17-Sep-22 19:20 34.208336 -118.487675 359 810ft 0kts
17-Sep-22 19:21 34.208336 -118.487675 359 810ft 0kts
17-Sep-22 19:22 34.208336 -118.487675 359 810ft 0kts
17-Sep-22 19:23 34.208336 -118.487675 359 810ft 0kts
17-Sep-22 19:24 34.208336 -118.487675 359 810ft 0kts
17-Sep-22 19:25 34.208336 -118.487675 359 810ft 0kts
17-Sep-22 19:26 34.208336 -118.487675 359 810ft 0kts
17-Sep-22 19:27 34.208336 -118.487675 359 810ft 0kts
17-Sep-22 19:28 34.208336 -118.487675 359 810ft 0kts
17-Sep-22 19:29 34.208336 -118.487675 359 810ft 0kts
17-Sep-22 19:30 34.208336 -118.487675 359 810ft 0kts
17-Sep-22 19:31 34.208336 -118.487675 359 810ft 0kts
17-Sep-22 19:32 34.208336 -118.487675 359 810ft 0kts
17-Sep-22 19:33 34.208623 -118.488081 268 810ft 2kts
17-Sep-22 19:34 34.210493 -118.488407 354 810ft 11kts
17-Sep-22 19:35 34.213612 -118.488700 355 810ft 10kts
17-Sep-22 19:36 34.216357 -118.489161 346 810ft 9kts
17-Sep-22 19:37 34.218720 -118.489496 351 810ft 5kts
17-Sep-22 19:38 34.218888 -118.490427 264 810ft 0kts
17-Sep-22 19:39 34.216165 -118.490997 175 810ft 71kts
17-Sep-22 19:40 34.176800 -118.494229 219 3330ft 158kts
17-Sep-22 19:41 34.160041 -118.542832 304 4846ft 204kts
17-Sep-22 19:42 34.216708 -118.560610 351 7453ft 225kts
17-Sep-22 19:43 34.266263 -118.593834 287 9307ft 216kts
17-Sep-22 19:44 34.288708 -118.666453 286 10023ft 271kts
17-Sep-22 19:45 34.317832 -118.758567 287 10653ft 334kts
17-Sep-22 19:46 34.352468 -118.867771 285 14310ft 343kts
17-Sep-22 19:47 34.374428 -118.981258 277 17552ft 356kts
17-Sep-22 19:48 34.395104 -119.101214 277 19419ft 368kts
17-Sep-22 19:49 34.416270 -119.223364 277 19839ft 381kts
17-Sep-22 19:50 34.438143 -119.350192 277 19847ft 384kts
17-Sep-22 19:51 34.459809 -119.477012 277 19855ft 385kts
17-Sep-22 19:52 34.481389 -119.603982 277 19839ft 385kts
17-Sep-22 19:53 34.503106 -119.731136 280 19851ft 388kts
17-Sep-22 19:54 34.562827 -119.842579 306 19568ft 397kts
17-Sep-22 19:55 34.636427 -119.938130 306 18654ft 383kts
17-Sep-22 19:56 34.707612 -120.031776 306 17291ft 366kts
17-Sep-22 19:57 34.774046 -120.119624 307 14336ft 331kts
17-Sep-22 19:58 34.833585 -120.198663 308 11969ft 305kts
17-Sep-22 19:59 34.887485 -120.270308 308 10593ft 264kts
17-Sep-22 20:00 34.933035 -120.330992 308 9634ft 219kts
17-Sep-22 20:01 34.980522 -120.366361 337 8681ft 182kts
17-Sep-22 20:02 35.026969 -120.386615 337 7215ft 174kts
17-Sep-22 20:03 35.071092 -120.408241 333 5764ft 168kts
17-Sep-22 20:04 35.112753 -120.432147 334 4352ft 162kts
17-Sep-22 20:05 35.141529 -120.472424 304 3555ft 159kts
17-Sep-22 20:06 35.166232 -120.515976 304 2844ft 155kts
17-Sep-22 20:07 35.189335 -120.556672 304 1981ft 127kts
17-Sep-22 20:08 35.209226 -120.591669 304 1222ft 125kts
17-Sep-22 20:09 35.228911 -120.626275 304 369ft 124kts
17-Sep-22 20:10 35.240539 -120.646667 305 183ft 10kts
17-Sep-22 20:11 35.240832 -120.645276 123 183ft 9kts
17-Sep-22 20:12 35.239477 -120.642874 124 182ft 8kts
17-Sep-22 20:13 35.238216 -120.640837 122 183ft 7kts
17-Sep-22 20:14 35.237451 -120.638781 89 183ft 6kts
17-Sep-22 20:15 35.237914 -120.636993 355 182ft 6kts
17-Sep-22 20:16 35.238375 -120.637541 300 182ft 0kts
17-Sep-22 20:17 35.238375 -120.637541 300 182ft 0kts
17-Sep-22 20:18 35.238375 -120.637541 300 182ft 0kts
17-Sep-22 20:19 35.238375 -120.637541 300 182ft 0kts
17-Sep-22 20:20 35.238375 -120.637541 300 182ft 0kts
17-Sep-22 20:21 35.238375 -120.637541 300 182ft 0kts
17-Sep-22 20:22 35.238375 -120.637541 300 182ft 0kts
17-Sep-22 20:23 35.238375 -120.637541 300 182ft 0kts

Navigation Log

Ident Type
Flight plan parsing failed, navigation log unavailable